Time;durP1;ratioP1;P1;durP2;ratioP2;P2;SDS_P1;SDS_P2;PMS_P1;PMS_P2;Temp;Humidity;BMP_temperature;BMP_pressure;BME280_temperature;BME280_humidity;BME280_pressure;Samples;Min_cycle;Max_cycle;Signal;HPM_P1;HPM_P2
2023/08/28 00:01:15;;;;;;;1.63;1.10;;;;;;;12.45;94.27;101109.06;5036312;28;20041;-83
2023/08/28 00:03:42;;;;;;;1.60;1.50;;;;;;;12.40;94.42;101104.81;5035781;28;20022;-83
2023/08/28 00:06:08;;;;;;;1.38;1.30;;;;;;;12.38;93.99;101098.78;5035391;28;20489;-82
2023/08/28 00:08:34;;;;;;;1.48;1.38;;;;;;;12.38;93.65;101094.47;5036183;28;20024;-83
2023/08/28 00:11:00;;;;;;;1.08;1.08;;;;;;;12.40;93.64;101105.66;5036012;28;20033;-83
2023/08/28 00:13:25;;;;;;;1.40;1.30;;;;;;;12.36;94.59;101104.88;5035428;28;20068;-83
2023/08/28 00:15:51;;;;;;;1.20;1.20;;;;;;;12.31;94.04;101098.91;5036238;28;20496;-83
2023/08/28 00:18:16;;;;;;;1.40;1.30;;;;;;;12.31;95.19;101093.72;5035967;28;20071;-83
2023/08/28 00:20:42;;;;;;;1.20;1.20;;;;;;;12.29;94.66;101094.59;5035339;28;20460;-83
2023/08/28 00:23:16;;;;;;;1.77;1.33;;;;;;;12.24;94.36;101102.50;5039009;28;20021;-83
2023/08/28 00:25:42;;;;;;;1.13;1.10;;;;;;;12.25;94.53;101095.56;5055796;28;20029;-83
2023/08/28 00:28:07;;;;;;;1.03;1.03;;;;;;;12.24;94.55;101092.09;5054474;28;20025;-83
2023/08/28 00:30:32;;;;;;;1.20;1.20;;;;;;;12.24;94.35;101093.84;5055933;28;20437;-83
2023/08/28 00:32:58;;;;;;;1.63;1.53;;;;;;;12.23;95.03;101092.13;5055596;28;20028;-83
2023/08/28 00:35:23;;;;;;;1.57;1.47;;;;;;;12.24;95.47;101096.44;5054614;28;20028;-83
2023/08/28 00:37:48;;;;;;;1.10;1.10;;;;;;;12.23;94.62;101089.53;5055214;28;20049;-83
2023/08/28 00:40:16;;;;;;;1.60;1.50;;;;;;;12.25;94.37;101095.56;5055249;28;20503;-83
2023/08/28 00:42:42;;;;;;;1.20;1.20;;;;;;;12.25;94.69;101087.75;5054766;28;20044;-83
2023/08/28 00:45:07;;;;;;;1.27;1.27;;;;;;;12.24;94.47;101088.63;5055380;28;20100;-83
2023/08/28 00:47:35;;;;;;;1.30;1.30;;;;;;;12.23;94.57;101084.31;5054624;28;20013;-83
2023/08/28 00:50:01;;;;;;;1.38;1.27;;;;;;;12.19;94.85;101076.56;5055269;28;20052;-83
2023/08/28 00:52:26;;;;;;;1.20;1.10;;;;;;;12.19;94.50;101073.13;5054855;28;20117;-83
2023/08/28 00:54:52;;;;;;;1.07;1.07;;;;;;;12.14;94.83;101073.19;5053782;28;20048;-83
2023/08/28 00:57:18;;;;;;;1.00;1.00;;;;;;;12.16;94.58;101078.38;5055254;28;20559;-83
2023/08/28 00:59:44;;;;;;;1.30;1.20;;;;;;;12.14;95.42;101078.41;5055225;28;20632;-82
2023/08/28 01:02:09;;;;;;;1.20;1.20;;;;;;;12.10;94.69;101075.88;5054330;28;20025;-82
2023/08/28 01:04:35;;;;;;;1.30;1.30;;;;;;;12.11;94.75;101082.78;5054640;28;20049;-83
2023/08/28 01:07:25;;;;;;;1.17;1.17;;;;;;;12.12;95.01;101082.78;5054942;28;20033;-83
2023/08/28 01:10:15;;;;;;;1.20;1.20;;;;;;;12.08;94.88;101083.69;5054402;28;20033;-83
2023/08/28 01:12:50;;;;;;;1.02;1.02;;;;;;;12.07;94.89;101070.72;5054836;28;20095;-83
2023/08/28 01:15:24;;;;;;;1.35;1.25;;;;;;;12.04;94.77;101072.50;5054629;28;20032;-83
2023/08/28 01:17:57;;;;;;;1.50;1.40;;;;;;;12.04;94.79;101080.31;5054181;28;20025;-83
2023/08/28 01:20:24;;;;;;;1.60;1.50;;;;;;;12.00;94.82;101081.22;5054822;28;20491;-83
2023/08/28 01:23:08;;;;;;;1.63;1.52;;;;;;;12.02;94.97;101086.41;5052611;28;20112;-83
2023/08/28 01:25:35;;;;;;;1.70;1.60;;;;;;;12.00;94.60;101085.59;5035962;28;20024;-83
2023/08/28 01:28:02;;;;;;;1.55;1.45;;;;;;;11.97;95.30;101072.59;5035166;28;20036;-83
2023/08/28 01:30:27;;;;;;;1.58;1.48;;;;;;;11.88;95.02;101060.59;5034239;28;20036;-83
2023/08/28 01:32:52;;;;;;;1.57;1.47;;;;;;;11.96;95.00;101071.75;5034765;28;20021;-83
2023/08/28 01:35:29;;;;;;;1.60;1.50;;;;;;;11.94;95.00;101064.84;5034186;28;20057;-83
2023/08/28 01:38:19;;;;;;;1.60;1.50;;;;;;;11.93;94.77;101063.16;5033976;28;20083;-83
2023/08/28 01:40:53;;;;;;;1.45;1.40;;;;;;;11.89;95.35;101071.00;5034565;28;20029;-83
2023/08/28 01:43:22;;;;;;;1.77;1.67;;;;;;;11.85;94.99;101064.13;5034459;28;20060;-83
2023/08/28 01:45:49;;;;;;;1.70;1.60;;;;;;;11.83;94.78;101057.22;5033776;28;20375;-83
2023/08/28 01:48:14;;;;;;;1.95;1.55;;;;;;;11.84;95.18;101064.16;5034233;28;20101;-83
2023/08/28 01:50:39;;;;;;;1.90;1.80;;;;;;;11.78;95.10;101046.91;5034142;28;20673;-83
2023/08/28 01:53:05;;;;;;;2.33;1.70;;;;;;;11.79;95.44;101055.56;5036108;28;20057;-83
2023/08/28 01:55:45;;;;;;;1.80;1.70;;;;;;;11.74;95.46;101058.25;5053985;28;20025;-83
2023/08/28 01:58:14;;;;;;;1.85;1.70;;;;;;;11.66;95.87;101058.34;5053045;28;20416;-82
2023/08/28 02:00:39;;;;;;;1.67;1.58;;;;;;;11.64;96.06;101060.16;5054216;28;20500;-83
2023/08/28 02:03:05;;;;;;;1.77;1.60;;;;;;;11.63;96.49;101060.16;5053161;28;20025;-83
2023/08/28 02:05:31;;;;;;;1.50;1.45;;;;;;;11.58;96.48;101048.13;5052891;28;20374;-83
2023/08/28 02:07:56;;;;;;;1.67;1.57;;;;;;;11.59;96.06;101043.75;5054001;28;20036;-83
2023/08/28 02:10:24;;;;;;;1.40;1.30;;;;;;;11.56;96.05;101036.88;5053661;28;20074;-83
2023/08/28 02:12:50;;;;;;;2.22;1.60;;;;;;;11.58;96.10;101034.25;5053118;28;20108;-83
2023/08/28 02:15:15;;;;;;;2.23;1.80;;;;;;;11.54;96.13;101033.44;5053901;28;20045;-83
2023/08/28 02:17:40;;;;;;;1.80;1.70;;;;;;;11.55;96.05;101031.69;5053522;28;20400;-83
2023/08/28 02:20:08;;;;;;;1.87;1.57;;;;;;;11.54;95.93;101027.41;5052932;28;20017;-83
2023/08/28 02:22:34;;;;;;;1.80;1.70;;;;;;;11.53;96.05;101031.72;5053910;28;20028;-83
2023/08/28 02:24:59;;;;;;;2.07;1.97;;;;;;;11.52;96.00;101034.34;5034947;28;20492;-82
2023/08/28 02:27:25;;;;;;;2.20;2.00;;;;;;;11.50;96.00;101038.72;5032809;28;20084;-83
2023/08/28 02:29:50;;;;;;;1.90;1.80;;;;;;;11.47;95.82;101044.81;5033725;28;20485;-83
2023/08/28 02:32:16;;;;;;;1.90;1.80;;;;;;;11.44;96.19;101050.06;5033193;28;20083;-83
2023/08/28 02:34:43;;;;;;;1.77;1.67;;;;;;;11.41;96.60;101057.91;5032545;28;20018;-82
2023/08/28 02:37:08;;;;;;;1.90;1.80;;;;;;;11.36;96.33;101049.34;5033216;28;20459;-82
2023/08/28 02:39:39;;;;;;;1.97;1.87;;;;;;;11.33;96.45;101050.22;5033653;28;20028;-83
2023/08/28 02:42:04;;;;;;;1.80;1.70;;;;;;;11.34;96.72;101045.91;5032609;28;20083;-83
2023/08/28 02:44:30;;;;;;;1.70;1.60;;;;;;;11.32;96.50;101050.25;5033247;28;20466;-83
2023/08/28 02:46:55;;;;;;;1.70;1.60;;;;;;;11.27;96.66;101040.78;5033462;28;20029;-82
2023/08/28 02:49:20;;;;;;;3.40;1.93;;;;;;;11.29;96.67;101058.94;5032224;28;20022;-83
2023/08/28 02:51:45;;;;;;;1.73;1.63;;;;;;;11.27;96.39;101050.31;5033044;28;20033;-83
2023/08/28 02:54:11;;;;;;;1.80;1.70;;;;;;;11.22;96.57;101053.00;5046453;28;20024;-82
2023/08/28 02:56:38;;;;;;;1.80;1.70;;;;;;;11.26;98.34;101057.25;5050933;28;20557;-83
2023/08/28 02:59:04;;;;;;;2.30;2.10;;;;;;;11.23;96.89;101065.09;5053041;28;20027;-83
2023/08/28 03:01:34;;;;;;;2.20;2.00;;;;;;;11.22;97.64;101057.31;5051531;28;20037;-83
2023/08/28 03:04:04;;;;;;;1.80;1.70;;;;;;;11.20;97.14;101052.16;5053017;28;20478;-83
2023/08/28 03:06:39;;;;;;;2.10;1.90;;;;;;;11.19;96.96;101052.19;5053310;28;20029;-83
2023/08/28 03:09:07;;;;;;;2.20;2.00;;;;;;;11.20;96.84;101059.09;5052619;28;20131;-83
2023/08/28 03:11:36;;;;;;;2.35;2.10;;;;;;;11.18;97.01;101063.44;5052916;28;20056;-83
2023/08/28 03:14:02;;;;;;;2.22;2.03;;;;;;;11.19;96.90;101076.41;5052725;28;20021;-83
2023/08/28 03:16:30;;;;;;;2.63;2.20;;;;;;;11.19;96.96;101078.16;5052027;28;20108;-83
2023/08/28 03:18:56;;;;;;;1.98;1.88;;;;;;;11.19;96.95;101081.59;5052546;28;20103;-83
2023/08/28 03:21:21;;;;;;;2.47;2.10;;;;;;;11.18;96.80;101069.50;5052367;28;20111;-83
2023/08/28 03:23:47;;;;;;;2.03;1.90;;;;;;;11.18;96.94;101076.44;5051697;28;20082;-83
2023/08/28 03:26:12;;;;;;;2.30;2.10;;;;;;;11.16;97.26;101071.25;5032981;28;20034;-82
2023/08/28 03:28:37;;;;;;;2.07;1.97;;;;;;;11.15;96.79;101074.72;5032422;28;20037;-83
2023/08/28 03:31:03;;;;;;;2.30;2.10;;;;;;;11.10;97.46;101068.75;5031544;28;20065;-82
2023/08/28 03:33:29;;;;;;;2.10;1.90;;;;;;;11.09;97.64;101072.22;5032785;28;20017;-83
2023/08/28 03:36:05;;;;;;;2.00;1.90;;;;;;;11.07;97.35;101079.16;5032855;28;20017;-83
2023/08/28 03:38:30;;;;;;;2.30;2.10;;;;;;;11.00;97.54;101068.00;5031770;28;20017;-83
2023/08/28 03:40:55;;;;;;;2.47;1.90;;;;;;;11.06;97.38;101091.31;5032613;28;20106;-83
2023/08/28 03:43:21;;;;;;;2.37;1.40;;;;;;;11.05;97.50;101101.69;5031622;28;20111;-83
2023/08/28 03:45:46;;;;;;;1.87;1.70;;;;;;;11.04;97.42;101099.97;5031895;28;20025;-82
2023/08/28 03:48:11;;;;;;;2.50;2.10;;;;;;;11.04;97.66;101100.84;5032364;28;20026;-83
2023/08/28 03:50:37;;;;;;;1.90;1.80;;;;;;;11.02;97.62;101101.75;5031709;28;20412;-83
2023/08/28 03:53:02;;;;;;;1.90;1.80;;;;;;;11.01;97.86;101097.44;5037402;28;20028;-83
2023/08/28 03:55:29;;;;;;;2.17;1.97;;;;;;;11.00;97.66;101099.16;5052361;28;20017;-82
2023/08/28 03:57:55;;;;;;;2.00;1.85;;;;;;;11.00;97.86;101104.34;5051944;28;20355;-81
2023/08/28 04:00:21;;;;;;;1.80;1.67;;;;;;;10.96;97.82;101106.16;5052057;28;20021;-82
2023/08/28 04:02:47;;;;;;;1.80;1.70;;;;;;;11.00;97.89;101113.91;5052278;28;20051;-81
2023/08/28 04:05:16;;;;;;;1.63;1.53;;;;;;;10.97;98.44;101110.47;5050287;28;20045;-82
2023/08/28 04:07:43;;;;;;;1.65;1.55;;;;;;;11.02;99.30;101120.78;5052279;28;20108;-81
2023/08/28 04:10:09;;;;;;;1.77;1.67;;;;;;;10.98;98.71;101116.50;5052392;28;20032;-80
2023/08/28 04:12:34;;;;;;;3.13;2.03;;;;;;;10.97;100.00;101120.84;5051266;28;20024;-79
2023/08/28 04:14:59;;;;;;;2.83;2.40;;;;;;;11.00;100.00;101121.69;5052054;28;20366;-79
2023/08/28 04:17:25;;;;;;;2.53;2.27;;;;;;;10.95;100.00;101117.41;5051686;28;20036;-79
2023/08/28 04:19:51;;;;;;;2.83;2.10;;;;;;;10.99;100.00;101125.16;5051539;28;20036;-79
2023/08/28 04:22:20;;;;;;;2.05;1.90;;;;;;;11.02;100.00;101128.56;5051941;28;20013;-79
2023/08/28 04:24:46;;;;;;;2.10;1.90;;;;;;;11.01;99.74;101126.00;5051569;28;20393;-79
2023/08/28 04:27:12;;;;;;;1.90;1.80;;;;;;;11.00;99.89;101124.28;5053265;28;20028;-80
2023/08/28 04:29:38;;;;;;;2.05;1.90;;;;;;;11.03;99.65;101127.69;5055998;28;20025;-80
2023/08/28 04:32:04;;;;;;;1.70;1.60;;;;;;;11.03;100.00;101130.31;5055619;28;20365;-80
2023/08/28 04:34:29;;;;;;;1.77;1.67;;;;;;;11.04;99.71;101125.94;5054594;28;20302;-80
2023/08/28 04:36:55;;;;;;;1.63;1.53;;;;;;;11.02;99.54;101120.78;5055695;28;20112;-80
2023/08/28 04:39:22;;;;;;;1.80;1.70;;;;;;;11.06;99.69;101130.28;5055464;28;20112;-83
2023/08/28 04:41:48;;;;;;;2.25;1.70;;;;;;;11.06;99.57;101127.69;5054863;28;20047;-83
2023/08/28 04:44:13;;;;;;;1.93;1.83;;;;;;;11.10;99.49;101131.09;5039710;28;20041;-82
2023/08/28 04:46:39;;;;;;;2.17;2.00;;;;;;;11.17;99.57;101129.28;5035033;28;20025;-82
2023/08/28 04:49:04;;;;;;;2.20;2.00;;;;;;;11.13;99.28;101115.47;5052989;28;20040;-82
2023/08/28 04:51:29;;;;;;;1.90;1.80;;;;;;;11.22;99.58;101128.31;5055272;28;20033;-82
2023/08/28 04:53:55;;;;;;;2.00;1.80;;;;;;;11.26;99.65;101124.78;5042347;28;20025;-82
2023/08/28 04:56:20;;;;;;;2.30;2.10;;;;;;;11.29;99.61;101116.13;5035361;28;20477;-82
2023/08/28 04:58:48;;;;;;;2.10;1.90;;;;;;;11.30;99.53;101106.56;5035087;28;20026;-82
2023/08/28 05:04:04;;;;;;;2.88;2.08;;;;;;;11.36;99.11;101111.69;5035509;28;20086;-84
2023/08/28 05:06:48;;;;;;;2.20;2.00;;;;;;;11.38;99.34;101112.50;5035141;28;20022;-83
2023/08/28 05:09:22;;;;;;;2.67;2.30;;;;;;;11.28;99.14;101083.22;5033696;28;20409;-83
2023/08/28 05:11:48;;;;;;;4.07;2.35;;;;;;;11.45;99.20;101106.38;5035180;28;20044;-83
2023/08/28 05:14:13;;;;;;;2.50;2.30;;;;;;;11.46;99.24;101099.41;5035926;28;20112;-83
2023/08/28 05:16:38;;;;;;;2.47;2.20;;;;;;;11.44;99.09;101091.66;5034387;28;20060;-83
2023/08/28 05:19:04;;;;;;;2.33;2.13;;;;;;;11.46;99.34;101105.47;5034689;28;20477;-83
2023/08/28 05:21:29;;;;;;;2.27;2.07;;;;;;;11.50;99.27;101106.28;5035228;28;20056;-83
2023/08/28 05:23:54;;;;;;;2.20;2.00;;;;;;;11.51;99.47;101095.84;5035374;28;20048;-83
2023/08/28 05:26:20;;;;;;;2.20;1.93;;;;;;;11.55;99.66;101094.06;5034546;28;20492;-83
2023/08/28 05:28:45;;;;;;;2.13;1.90;;;;;;;11.56;99.49;101099.25;5034259;28;20056;-83
2023/08/28 05:31:10;;;;;;;1.97;1.80;;;;;;;11.61;99.58;101090.50;5034665;28;20025;-83
2023/08/28 05:33:36;;;;;;;1.83;1.70;;;;;;;11.68;99.99;101097.34;5034785;28;20485;-83
2023/08/28 05:36:03;;;;;;;2.20;2.00;;;;;;;11.72;100.00;101099.88;5033485;28;20029;-82
2023/08/28 05:38:28;;;;;;;1.80;1.70;;;;;;;11.79;100.00;101094.56;5033623;28;20374;-83
2023/08/28 05:40:53;;;;;;;2.07;1.90;;;;;;;11.86;100.00;101093.59;5034995;28;20018;-82
2023/08/28 05:43:19;;;;;;;2.20;2.00;;;;;;;11.91;100.00;101089.16;5033696;28;20477;-83
2023/08/28 05:45:46;;;;;;;1.80;1.70;;;;;;;12.05;100.00;101095.03;5034210;28;20497;-82
2023/08/28 05:48:11;;;;;;;1.77;1.67;;;;;;;12.11;100.00;101091.47;5034572;28;20022;-82
2023/08/28 05:50:39;;;;;;;1.80;1.70;;;;;;;12.16;100.00;101089.63;5033946;28;20033;-82
2023/08/28 05:53:05;;;;;;;1.73;1.63;;;;;;;12.24;100.00;101094.69;5035272;28;20485;-83
2023/08/28 05:55:31;;;;;;;1.75;1.65;;;;;;;12.33;100.00;101098.88;5034250;28;20025;-82
2023/08/28 05:57:57;;;;;;;1.30;1.30;;;;;;;12.39;100.00;101103.09;5033879;28;20052;-82
2023/08/28 06:00:22;;;;;;;1.60;1.50;;;;;;;12.44;100.00;101109.94;5034894;28;20033;-82
2023/08/28 06:05:12;;;;;;;1.92;1.80;;;;;;;12.53;100.00;101098.50;5059380;23;20122;-82
2023/08/28 06:07:38;;;;;;;1.83;1.73;;;;;;;12.54;100.00;101094.13;5054300;28;20032;-82
2023/08/28 06:10:05;;;;;;;1.80;1.70;;;;;;;12.51;100.00;101088.09;5053290;28;20131;-82
2023/08/28 06:12:30;;;;;;;;;;;;;;;12.63;100.00;101101.75;5053856;28;20385;-82
2023/08/28 06:14:55;;;;;;;1.57;1.47;;;;;;;12.63;100.00;101097.44;5053664;28;19912;-82
2023/08/28 06:17:23;;;;;;;1.40;1.30;;;;;;;12.70;100.00;101098.16;5053692;28;20025;-82
2023/08/28 06:19:49;;;;;;;1.40;1.30;;;;;;;12.74;100.00;101094.59;5053176;28;20021;-83
2023/08/28 06:22:14;;;;;;;1.50;1.40;;;;;;;12.78;100.00;101096.25;5053622;28;20389;-83
2023/08/28 06:24:39;;;;;;;1.07;1.07;;;;;;;12.81;100.00;101095.34;5053451;28;20401;-82
2023/08/28 06:27:04;;;;;;;0.93;0.93;;;;;;;12.86;100.00;101105.66;5052776;28;20044;-82
2023/08/28 06:29:30;;;;;;;0.90;0.90;;;;;;;12.88;100.00;101096.06;5053535;28;20116;-83
2023/08/28 06:31:55;;;;;;;0.80;0.80;;;;;;;12.96;100.00;101101.97;5053287;28;20025;-82
2023/08/28 06:34:20;;;;;;;1.00;1.00;;;;;;;12.97;100.00;101104.56;5052194;28;20380;-80
2023/08/28 06:36:46;;;;;;;2.57;2.17;;;;;;;13.04;100.00;101105.28;5053687;28;20460;-80
2023/08/28 06:39:12;;;;;;;2.00;1.80;;;;;;;13.09;100.00;101108.63;5052311;28;20045;-80
2023/08/28 06:41:38;;;;;;;2.17;1.97;;;;;;;13.16;100.00;101104.16;5053508;28;20032;-80
2023/08/28 06:44:04;;;;;;;1.60;1.50;;;;;;;13.19;100.00;101101.50;5053157;28;20275;-80
2023/08/28 06:46:30;;;;;;;1.38;1.33;;;;;;;13.26;100.00;101116.09;5052482;28;20047;-81
2023/08/28 06:48:56;;;;;;;1.17;1.10;;;;;;;13.32;100.00;101112.47;5053150;28;20431;-80
2023/08/28 06:51:22;;;;;;;1.30;1.27;;;;;;;13.40;100.00;101112.34;5053118;28;20028;-81
2023/08/28 06:53:48;;;;;;;1.27;1.17;;;;;;;13.45;100.00;101115.72;5052625;28;20033;-81
2023/08/28 06:56:13;;;;;;;1.67;1.58;;;;;;;13.55;100.00;101116.34;5052919;28;20079;-81
2023/08/28 06:58:39;;;;;;;2.60;1.70;;;;;;;13.65;100.00;101119.59;5053052;28;20033;-81
2023/08/28 07:01:04;;;;;;;2.80;2.50;;;;;;;13.81;100.00;101128.75;5052089;28;20366;-82
2023/08/28 07:03:30;;;;;;;2.30;2.10;;;;;;;13.90;100.00;101130.31;5052383;28;20436;-82
2023/08/28 07:05:55;;;;;;;2.57;2.37;;;;;;;14.06;100.00;101136.00;5053222;28;20052;-82
2023/08/28 07:08:27;;;;;;;2.10;1.90;;;;;;;14.25;100.00;101143.34;5051496;28;20112;-82
2023/08/28 07:10:52;;;;;;;1.83;1.73;;;;;;;14.84;100.00;101145.28;5052818;28;20060;-82
2023/08/28 07:13:17;;;;;;;1.37;1.27;;;;;;;15.16;100.00;101145.22;5052639;28;20477;-82
2023/08/28 07:15:43;;;;;;;1.60;1.50;;;;;;;15.48;100.00;101146.88;5052071;28;20031;-82
2023/08/28 07:18:08;;;;;;;0.90;0.90;;;;;;;16.76;100.00;101133.91;5052711;28;20543;-82
2023/08/28 07:20:34;;;;;;;1.80;1.70;;;;;;;17.98;100.00;101136.25;5052754;28;20059;-83
2023/08/28 07:23:00;;;;;;;1.70;1.60;;;;;;;18.67;96.54;101148.19;5051658;28;20079;-82
2023/08/28 07:25:25;;;;;;;1.80;1.70;;;;;;;18.73;94.40;101146.19;5051995;28;20485;-82
2023/08/28 07:27:51;;;;;;;1.67;1.57;;;;;;;18.34;93.60;101142.59;5052498;28;20501;-83
2023/08/28 07:30:17;;;;;;;1.80;1.70;;;;;;;18.00;92.42;101141.41;5051383;28;20060;-82
2023/08/28 07:32:42;;;;;;;1.70;1.60;;;;;;;17.74;92.99;101138.06;5052471;28;20060;-80
2023/08/28 07:35:08;;;;;;;2.50;2.30;;;;;;;17.54;93.06;101138.88;5052549;28;20051;-81
2023/08/28 07:37:34;;;;;;;2.90;2.40;;;;;;;17.40;94.29;101142.91;5052035;28;20108;-82
2023/08/28 07:40:00;;;;;;;2.78;1.98;;;;;;;17.27;94.26;101132.03;5052654;28;20112;-83
2023/08/28 07:42:26;;;;;;;1.98;1.88;;;;;;;17.24;95.06;101132.16;5051521;28;20053;-82
2023/08/28 07:44:51;;;;;;;3.20;2.67;;;;;;;17.19;94.11;101123.59;5052706;28;20029;-82
2023/08/28 07:47:20;;;;;;;3.53;2.80;;;;;;;17.11;94.91;101136.16;5052176;28;20373;-83
2023/08/28 07:49:45;;;;;;;2.95;2.30;;;;;;;17.02;95.45;101126.00;5050757;28;20347;-82
2023/08/28 07:52:10;;;;;;;2.00;1.90;;;;;;;17.04;95.95;101137.31;5042194;28;20028;-83
2023/08/28 07:54:39;;;;;;;2.40;2.20;;;;;;;17.08;95.48;101126.63;5036565;28;20136;-85
2023/08/28 07:57:04;;;;;;;4.05;3.10;;;;;;;17.26;94.42;101130.31;5037431;28;20079;-83
2023/08/28 07:59:30;;;;;;;3.37;2.70;;;;;;;17.34;95.32;101126.53;5052539;28;20485;-84
2023/08/28 08:01:57;;;;;;;3.07;2.63;;;;;;;17.42;95.03;101125.31;5054443;28;20037;-83
2023/08/28 08:04:22;;;;;;;3.40;2.55;;;;;;;17.54;93.05;101129.22;5037410;28;20045;-81
2023/08/28 08:06:48;;;;;;;4.40;3.30;;;;;;;17.53;92.67;101134.53;5056436;28;20432;-81
2023/08/28 08:09:13;;;;;;;2.87;2.43;;;;;;;17.52;94.10;101131.03;5055791;28;20066;-80
2023/08/28 08:11:38;;;;;;;2.33;2.13;;;;;;;17.68;94.59;101140.94;5055158;28;20029;-81
2023/08/28 08:14:04;;;;;;;2.10;1.90;;;;;;;17.77;93.96;101135.31;5055880;28;20056;-81
2023/08/28 08:16:29;;;;;;;1.70;1.60;;;;;;;17.87;94.04;101133.16;5055932;28;20071;-81
2023/08/28 08:18:55;;;;;;;1.40;1.30;;;;;;;17.93;94.23;101134.69;5055136;28;20024;-80
2023/08/28 08:21:20;;;;;;;1.50;1.40;;;;;;;17.97;94.05;101131.91;5056026;28;20047;-80
2023/08/28 08:23:47;;;;;;;1.23;1.20;;;;;;;18.03;93.78;101138.66;5055910;28;20040;-80
2023/08/28 08:26:13;;;;;;;2.15;2.00;;;;;;;17.97;92.77;101131.91;5054922;28;20033;-81
2023/08/28 08:28:38;;;;;;;1.67;1.57;;;;;;;17.92;93.43;101139.06;5056017;28;20029;-80
2023/08/28 08:31:04;;;;;;;1.20;1.10;;;;;;;17.92;93.53;101139.06;5055646;28;20051;-81
2023/08/28 08:33:29;;;;;;;1.47;1.37;;;;;;;17.93;91.26;101143.41;5055048;28;20036;-81
2023/08/28 08:35:55;;;;;;;1.60;1.50;;;;;;;17.87;92.45;101136.63;5055564;28;20020;-80
2023/08/28 08:38:21;;;;;;;1.47;1.40;;;;;;;17.85;92.73;101141.09;5054669;28;20405;-82
2023/08/28 08:40:53;;;;;;;1.33;1.27;;;;;;;17.86;93.20;101147.22;5054645;28;20362;-83
2023/08/28 08:43:18;;;;;;;2.33;1.92;;;;;;;17.84;92.10;101151.66;5055583;28;20075;-82
2023/08/28 08:45:44;;;;;;;1.80;1.70;;;;;;;17.80;92.73;101153.56;5054109;28;20032;-82
2023/08/28 08:48:16;;;;;;;1.35;1.25;;;;;;;17.81;92.64;101162.28;5055214;28;20110;-82
2023/08/28 08:50:42;;;;;;;1.52;1.42;;;;;;;17.83;92.82;101150.81;5055553;28;20028;-82
2023/08/28 08:53:28;;;;;;;1.60;1.50;;;;;;;17.92;92.68;101146.94;5054432;28;20032;-82
2023/08/28 08:55:57;;;;;;;1.35;1.25;;;;;;;18.04;93.42;101151.72;5055295;28;20044;-83
2023/08/28 08:58:24;;;;;;;1.50;1.40;;;;;;;18.19;92.85;101150.22;5055412;28;20398;-82
2023/08/28 09:00:49;;;;;;;1.05;1.05;;;;;;;18.41;92.78;101153.72;5054578;28;20025;-82
2023/08/28 09:03:16;;;;;;;1.10;1.10;;;;;;;18.57;91.81;101156.53;5055044;28;20032;-82
2023/08/28 09:05:43;;;;;;;1.10;1.00;;;;;;;18.60;91.59;101145.88;5055263;28;20484;-82
2023/08/28 09:08:10;;;;;;;1.25;1.25;;;;;;;18.65;91.14;101154.41;5054183;28;20164;-82
2023/08/28 09:10:35;;;;;;;1.13;1.05;;;;;;;18.68;91.56;101151.66;5054732;28;20057;-82
2023/08/28 09:13:01;;;;;;;0.77;0.77;;;;;;;18.75;91.56;101150.44;5055061;28;20071;-82
2023/08/28 09:15:26;;;;;;;0.90;0.90;;;;;;;18.74;91.40;101155.78;5054183;28;20123;-82
2023/08/28 09:17:52;;;;;;;0.90;0.90;;;;;;;18.70;90.62;101143.69;5055081;28;20385;-82
2023/08/28 09:20:24;;;;;;;0.85;0.85;;;;;;;18.60;90.54;101140.63;5054229;28;20545;-82
2023/08/28 09:22:51;;;;;;;1.10;1.10;;;;;;;18.46;89.56;101147.34;5054176;28;20037;-82
2023/08/28 09:25:18;;;;;;;0.80;0.80;;;;;;;18.42;90.31;101143.13;5054337;28;20025;-82
2023/08/28 09:27:45;;;;;;;1.00;0.90;;;;;;;18.39;90.82;101148.53;5054753;28;20025;-81
2023/08/28 09:30:25;;;;;;;0.82;0.82;;;;;;;18.33;90.77;101130.38;5053809;28;20029;-81
2023/08/28 09:32:53;;;;;;;0.75;0.75;;;;;;;18.32;90.89;101137.44;5054823;28;20116;-81
2023/08/28 09:35:22;;;;;;;1.00;1.00;;;;;;;18.35;90.61;101139.91;5053548;28;20028;-81
2023/08/28 09:38:00;;;;;;;0.90;0.90;;;;;;;18.36;91.14;101143.41;5054292;28;20528;-82
2023/08/28 09:40:34;;;;;;;0.60;0.60;;;;;;;18.37;91.06;101153.00;5053872;28;20028;-80
2023/08/28 09:43:00;;;;;;;0.70;0.70;;;;;;;18.41;91.29;101151.09;5053904;28;20487;-80
2023/08/28 09:45:32;;;;;;;0.90;0.60;;;;;;;18.42;89.71;101153.63;5054293;28;20029;-80
2023/08/28 09:47:58;;;;;;;0.73;0.73;;;;;;;18.46;90.94;101154.38;5054200;28;20032;-80
2023/08/28 09:50:27;;;;;;;0.53;0.53;;;;;;;18.51;90.98;101149.75;5053624;28;20029;-80
2023/08/28 09:52:52;;;;;;;0.80;0.75;;;;;;;18.56;90.21;101150.44;5054634;28;20091;-80
2023/08/28 09:55:18;;;;;;;0.60;0.60;;;;;;;18.63;90.57;101151.00;5054169;28;20470;-80
2023/08/28 09:57:43;;;;;;;1.30;1.20;;;;;;;18.64;88.47;101163.19;5053539;28;20032;-80
2023/08/28 10:00:11;;;;;;;1.07;1.07;;;;;;;18.65;89.62;101163.16;5054017;28;20040;-80
2023/08/28 10:02:37;;;;;;;1.00;1.00;;;;;;;18.70;89.34;101160.31;5054173;28;20049;-80
2023/08/28 10:05:08;;;;;;;0.90;0.90;;;;;;;18.78;89.49;101155.56;5053010;28;20084;-81
2023/08/28 10:07:37;;;;;;;0.70;0.70;;;;;;;18.91;89.72;101155.00;5054135;28;20144;-81
2023/08/28 10:10:05;;;;;;;0.90;0.90;;;;;;;19.00;89.07;101156.41;5053187;28;20057;-82
2023/08/28 10:12:31;;;;;;;0.52;0.52;;;;;;;19.07;89.43;101161.31;5053651;28;20032;-83
2023/08/28 10:15:00;;;;;;;0.57;0.57;;;;;;;19.19;89.04;101157.25;5053955;28;20012;-83
2023/08/28 10:17:27;;;;;;;0.80;0.70;;;;;;;19.30;88.40;101151.50;5053039;28;20776;-82
2023/08/28 10:20:03;;;;;;;0.68;0.68;;;;;;;19.40;86.66;101152.78;5053262;28;20029;-83
2023/08/28 10:22:30;;;;;;;0.70;0.60;;;;;;;19.55;87.28;101153.81;5053564;28;20051;-80
2023/08/28 10:24:57;;;;;;;2.17;2.00;;;;;;;19.51;72.51;101160.13;5051223;28;20111;-81
2023/08/28 10:27:23;;;;;;;1.77;1.67;;;;;;;19.44;80.57;101156.09;5053488;28;20055;-81
2023/08/28 10:29:49;;;;;;;1.85;1.38;;;;;;;19.61;82.46;101160.56;5053599;28;20033;-81
2023/08/28 10:32:15;;;;;;;0.90;0.90;;;;;;;19.83;79.90;101159.50;5052701;28;20100;-81
2023/08/28 10:34:44;;;;;;;0.77;0.77;;;;;;;20.03;82.63;101163.84;5054063;28;20493;-81
2023/08/28 10:37:10;;;;;;;0.70;0.70;;;;;;;20.09;80.09;101160.88;5053442;28;20025;-81
2023/08/28 10:39:40;;;;;;;0.70;0.70;;;;;;;20.17;81.83;101160.50;5052305;28;20121;-81
2023/08/28 10:42:08;;;;;;;0.70;0.70;;;;;;;20.26;82.63;101157.38;5053214;28;20110;-81
2023/08/28 10:44:34;;;;;;;0.60;0.60;;;;;;;20.25;82.28;101150.41;5053375;28;20461;-81
2023/08/28 10:47:00;;;;;;;0.55;0.55;;;;;;;20.26;82.08;101143.38;5052229;28;20033;-81
2023/08/28 10:49:27;;;;;;;0.60;0.60;;;;;;;20.39;82.08;101147.03;5052547;28;20025;-81
2023/08/28 10:52:09;;;;;;;0.68;0.68;;;;;;;20.51;81.73;101154.31;5052559;28;20500;-81
2023/08/28 10:54:39;;;;;;;0.60;0.60;;;;;;;20.58;81.87;101152.22;5051953;28;20035;-81
2023/08/28 10:57:10;;;;;;;0.60;0.60;;;;;;;20.60;81.28;101158.25;5053162;28;20057;-81
2023/08/28 10:59:49;;;;;;;0.47;0.47;;;;;;;20.57;72.47;101147.03;5052491;28;20031;-81
2023/08/28 11:02:14;;;;;;;0.85;0.73;;;;;;;20.71;79.77;101136.63;5053051;28;20029;-81
2023/08/28 11:04:40;;;;;;;0.80;0.80;;;;;;;21.03;79.31;101141.09;5052773;28;20043;-81
2023/08/28 11:07:27;;;;;;;0.70;0.70;;;;;;;21.17;79.41;101135.91;5051744;28;20104;-81
2023/08/28 11:10:17;;;;;;;0.50;0.50;;;;;;;21.32;79.03;101151.84;5052757;28;20047;-81
2023/08/28 11:12:59;;;;;;;1.55;0.82;;;;;;;21.41;78.37;101138.13;5053018;28;20152;-81
2023/08/28 11:15:27;;;;;;;1.08;0.98;;;;;;;21.44;72.48;101145.88;5050734;28;20143;-81
2023/08/28 11:18:26;;;;;;;0.65;0.57;;;;;;;21.38;76.92;101141.78;5052721;28;20020;-81
2023/08/28 11:21:02;;;;;;;0.60;0.60;;;;;;;21.38;77.96;101131.25;5051459;28;20107;-81
2023/08/28 11:23:36;;;;;;;0.60;0.60;;;;;;;21.39;77.59;101135.56;5052584;28;20484;-82
2023/08/28 11:26:14;;;;;;;1.33;0.60;;;;;;;21.38;78.08;101131.25;5053015;28;20039;-82
2023/08/28 11:28:48;;;;;;;0.45;0.45;;;;;;;21.42;77.99;101132.75;5052188;28;20025;-82
2023/08/28 11:31:14;;;;;;;0.40;0.40;;;;;;;21.55;77.16;101126.78;5052457;28;20037;-82